KRWL/RWL METAR and TAF weather

Enter ICAO airport designator
Station Type Date Time Source
KRWL METAR 2020/10/22 02:53 UTC NOAA

KRWL 220253Z AUTO 26023G34KT 10SM CLR 13/M05 A2984 RMK AO2 PK WND 27035/0221 SLP040 T01281050 50006


Station Type Date Time Source
KRWL Decoded METAR 2020/10/22 02:53 UTC NOAA

RAWLINS MUNICIPAL AIRPORT, WY, United States (KRWL) 41-48N 107-12W
Oct 21, 2020 - 10:53 PM EDT / 2020.10.22 0253 UTC
Wind: from the W (260 degrees) at 26 MPH (23 KT) gusting to 39 MPH (34 KT):0
Visibility: 10 mile(s):0
Sky conditions: clear
Temperature: 55.0 F (12.8 C)
Dew Point: 23.0 F (-5.0 C)
Relative Humidity: 28%
Pressure (altimeter): 29.84 in. Hg (1010 hPa)
Pressure tendency: 0.02 inches (0.6 hPa) higher than three hours ago
ob: KRWL 220253Z AUTO 26023G34KT 10SM CLR 13/M05 A2984 RMK AO2 PK WND 27035/0221 SLP040 T01281050 50006
cycle: 3

Station Type Date Time Source
KRWL TAF 2020/10/22 02:03 UTC NOAA

TAF
AMD KRWL 220200Z 2202/2224 26021G32KT P6SM SKC
FM221500 32015KT P6SM SCT020 BKN050
FM221800 36013G24KT P6SM BKN025

Example: see airport list